createdAt,value
2018-02-17T00:00:37.867Z,31.23
2018-02-17T00:03:05.278Z,30.57
2018-02-17T00:05:33.064Z,33.80
2018-02-17T00:08:00.464Z,32.05
2018-02-17T00:10:27.889Z,30.27
2018-02-17T00:12:55.302Z,33.93
2018-02-17T00:15:22.713Z,33.33
2018-02-17T00:17:50.116Z,32.43
2018-02-17T00:20:17.534Z,34.53
2018-02-17T00:22:49.775Z,35.17
2018-02-17T00:25:17.185Z,34.90
2018-02-17T00:27:44.593Z,34.70
2018-02-17T00:30:11.991Z,32.80
2018-02-17T00:32:39.417Z,26.30
2018-02-17T00:35:06.822Z,30.37
2018-02-17T00:37:34.238Z,26.93
2018-02-17T00:40:01.646Z,25.53
2018-02-17T00:42:29.063Z,25.73
2018-02-17T00:44:56.505Z,26.33
2018-02-17T00:47:23.888Z,22.23
2018-02-17T00:49:51.288Z,29.40
2018-02-17T00:52:18.709Z,31.87
2018-02-17T00:54:46.125Z,33.63
2018-02-17T00:57:13.542Z,41.83
2018-02-17T00:59:40.951Z,35.28
2018-02-17T01:02:08.366Z,38.50
2018-02-17T01:04:35.773Z,40.20
2018-02-17T01:07:03.195Z,32.37
2018-02-17T01:09:30.605Z,30.93
2018-02-17T01:11:58.025Z,33.17
2018-02-17T01:14:25.426Z,35.63
2018-02-17T01:16:53.726Z,36.90
2018-02-17T01:19:21.137Z,42.73
2018-02-17T01:21:48.554Z,39.42
2018-02-17T01:24:15.961Z,37.83
2018-02-17T01:26:43.377Z,39.47
2018-02-17T01:29:10.797Z,41.22
2018-02-17T01:31:38.204Z,40.37
2018-02-17T01:34:05.613Z,41.67
2018-02-17T01:36:33.037Z,40.92
2018-02-17T01:39:00.442Z,39.43
2018-02-17T01:41:27.858Z,42.80
2018-02-17T01:43:55.261Z,39.83
2018-02-17T01:46:22.665Z,38.60
2018-02-17T01:48:50.125Z,39.73
2018-02-17T01:51:17.529Z,40.00
2018-02-17T01:53:44.950Z,40.17
2018-02-17T01:56:12.352Z,36.40
2018-02-17T01:58:39.769Z,40.63
2018-02-17T02:01:07.173Z,38.27
2018-02-17T02:03:34.585Z,39.97
2018-02-17T02:06:01.989Z,42.70
2018-02-17T02:08:29.408Z,39.20
2018-02-17T02:10:56.821Z,33.23
2018-02-17T02:13:25.280Z,36.40
2018-02-17T02:15:52.688Z,32.50
2018-02-17T02:18:20.106Z,36.40
2018-02-17T02:20:47.509Z,32.73
2018-02-17T02:23:14.933Z,32.90
2018-02-17T02:25:42.329Z,30.23
2018-02-17T02:28:09.745Z,30.40
2018-02-17T02:30:37.153Z,27.90
2018-02-17T02:33:04.589Z,27.80
2018-02-17T02:35:31.981Z,27.30
2018-02-17T02:37:59.401Z,22.70
2018-02-17T02:40:26.819Z,28.25
2018-02-17T02:42:54.225Z,29.60
2018-02-17T02:45:21.630Z,30.27
2018-02-17T02:47:49.041Z,31.20
2018-02-17T02:50:16.463Z,30.97
2018-02-17T02:52:43.861Z,32.07
2018-02-17T02:55:11.922Z,30.40
2018-02-17T02:57:39.329Z,29.23
2018-02-17T03:00:06.738Z,28.17
2018-02-17T03:02:34.144Z,32.43
2018-02-17T03:05:01.561Z,30.98
2018-02-17T03:07:28.984Z,39.27
2018-02-17T03:09:56.904Z,42.00
2018-02-17T03:12:24.315Z,43.43
2018-02-17T03:14:51.727Z,43.00
2018-02-17T03:17:19.136Z,41.57
2018-02-17T03:19:46.544Z,41.50
2018-02-17T03:22:13.956Z,46.27
2018-02-17T03:24:41.380Z,48.27
2018-02-17T03:27:08.798Z,51.57
2018-02-17T03:29:36.210Z,53.90
2018-02-17T03:32:03.621Z,55.30
2018-02-17T03:34:31.035Z,53.33
2018-02-17T03:36:58.437Z,54.07
2018-02-17T03:39:25.861Z,53.77
2018-02-17T03:41:53.266Z,52.13
2018-02-17T03:44:20.721Z,51.93
2018-02-17T03:46:48.113Z,54.43
2018-02-17T03:49:15.537Z,56.77
2018-02-17T03:51:42.956Z,55.40
2018-02-17T03:54:10.377Z,58.17
2018-02-17T03:56:37.803Z,46.20
2018-02-17T03:59:05.226Z,64.35
2018-02-17T04:01:32.629Z,57.77
2018-02-17T04:04:00.055Z,55.90
2018-02-17T04:06:27.469Z,57.88
2018-02-17T04:08:54.884Z,60.57
2018-02-17T04:11:22.293Z,55.43
2018-02-17T04:13:49.740Z,52.53
2018-02-17T04:16:17.142Z,49.30
2018-02-17T04:18:44.555Z,38.63
2018-02-17T04:21:11.962Z,46.58
2018-02-17T04:23:39.368Z,45.77
2018-02-17T04:26:06.782Z,47.50
2018-02-17T04:28:34.188Z,45.30
2018-02-17T04:31:01.606Z,42.90
2018-02-17T04:33:29.536Z,44.58
2018-02-17T04:35:56.954Z,39.30
2018-02-17T04:38:24.371Z,42.10
2018-02-17T04:40:55.578Z,38.20
2018-02-17T04:43:28.507Z,36.30
2018-02-17T04:45:58.186Z,42.20
2018-02-17T04:48:27.389Z,38.40
2018-02-17T04:50:55.584Z,37.30
2018-02-17T04:53:28.681Z,36.70
2018-02-17T04:59:00.474Z,36.97
2018-02-17T05:04:31.200Z,31.20
2018-02-17T05:07:15.461Z,29.07
2018-02-17T05:09:42.877Z,31.37
2018-02-17T05:12:10.297Z,30.73
2018-02-17T05:14:38.597Z,30.37
2018-02-17T05:20:09.024Z,31.23
2018-02-17T05:25:40.507Z,30.67
2018-02-17T05:31:13.706Z,30.42
2018-02-17T05:33:49.807Z,30.57
2018-02-17T05:36:30.013Z,30.83
2018-02-17T05:38:59.362Z,32.45
2018-02-17T05:44:52.387Z,28.95
2018-02-17T05:47:19.808Z,30.75
2018-02-17T05:49:48.033Z,30.80
2018-02-17T05:52:15.441Z,30.47
2018-02-17T05:54:42.849Z,31.97
2018-02-17T05:57:10.262Z,34.90
2018-02-17T05:59:37.675Z,36.33
2018-02-17T06:02:05.101Z,33.20
2018-02-17T06:04:32.534Z,36.87
2018-02-17T06:06:59.930Z,33.43
2018-02-17T06:09:27.354Z,37.73
2018-02-17T06:11:54.766Z,35.97
2018-02-17T06:14:22.185Z,35.77
2018-02-17T06:16:49.601Z,37.33
2018-02-17T06:19:17.016Z,40.00
2018-02-17T06:21:44.428Z,40.40
2018-02-17T06:24:11.841Z,44.73
2018-02-17T06:26:39.250Z,46.85
2018-02-17T06:29:06.665Z,45.50
2018-02-17T06:31:34.091Z,48.60
2018-02-17T06:34:01.689Z,44.43
2018-02-17T06:36:29.095Z,39.83
2018-02-17T06:38:56.517Z,42.47
2018-02-17T06:41:23.921Z,39.00
2018-02-17T06:43:51.334Z,38.93
2018-02-17T06:46:18.739Z,43.27
2018-02-17T06:48:46.155Z,39.27
2018-02-17T06:51:13.568Z,38.17
2018-02-17T06:53:40.984Z,38.13
2018-02-17T06:56:08.390Z,34.77
2018-02-17T06:58:35.806Z,31.77
2018-02-17T07:01:03.212Z,32.53
2018-02-17T07:03:30.638Z,32.67
2018-02-17T07:05:58.039Z,32.90
2018-02-17T07:08:25.474Z,30.07
2018-02-17T07:10:53.793Z,31.55
2018-02-17T07:13:21.205Z,30.30
2018-02-17T07:15:48.618Z,27.97
2018-02-17T07:18:16.025Z,28.87
2018-02-17T07:20:43.448Z,28.27
2018-02-17T07:23:10.849Z,31.67
2018-02-17T07:25:38.263Z,34.20
2018-02-17T07:28:05.679Z,32.40
2018-02-17T07:30:33.102Z,33.90
2018-02-17T07:33:00.506Z,33.10
2018-02-17T07:35:27.938Z,34.83
2018-02-17T07:37:55.341Z,31.07
2018-02-17T07:40:22.792Z,32.83
2018-02-17T07:42:50.182Z,34.60
2018-02-17T07:45:17.588Z,33.47
2018-02-17T07:47:44.988Z,34.40
2018-02-17T07:50:12.406Z,32.65
2018-02-17T07:52:39.814Z,32.57
2018-02-17T07:55:07.236Z,30.40
2018-02-17T07:57:34.634Z,30.37
2018-02-17T08:00:02.074Z,35.63
2018-02-17T08:02:29.470Z,33.20
2018-02-17T08:04:56.895Z,30.95
2018-02-17T08:07:24.293Z,31.63
2018-02-17T08:09:51.713Z,32.40
2018-02-17T08:12:19.121Z,37.40
2018-02-17T08:14:46.539Z,25.70
2018-02-17T08:17:13.942Z,27.70
2018-02-17T08:19:41.353Z,25.60
2018-02-17T08:22:08.768Z,28.20
2018-02-17T08:24:36.200Z,32.23
2018-02-17T08:27:03.592Z,27.07
2018-02-17T08:29:30.994Z,24.27
2018-02-17T08:31:58.418Z,23.00
2018-02-17T08:34:25.842Z,26.00
2018-02-17T08:36:53.252Z,26.90
2018-02-17T08:39:20.684Z,26.67
2018-02-17T08:41:48.097Z,29.70
2018-02-17T08:44:15.505Z,27.17
2018-02-17T08:46:42.922Z,27.13
2018-02-17T08:49:10.330Z,25.00
2018-02-17T08:51:37.761Z,26.80
2018-02-17T08:54:08.031Z,26.03
2018-02-17T08:56:35.447Z,25.97
2018-02-17T08:59:02.850Z,24.97
2018-02-17T09:01:30.264Z,25.65
2018-02-17T09:03:57.680Z,26.50
2018-02-17T09:06:25.094Z,27.20
2018-02-17T09:08:52.503Z,24.57
2018-02-17T09:11:19.920Z,28.03
2018-02-17T09:13:47.325Z,27.73
2018-02-17T09:16:14.741Z,29.63
2018-02-17T09:18:42.158Z,26.73
2018-02-17T09:21:10.273Z,31.55
2018-02-17T09:23:37.693Z,28.10
2018-02-17T09:26:05.120Z,25.37
2018-02-17T09:28:32.516Z,25.97
2018-02-17T09:30:59.928Z,28.13
2018-02-17T09:33:27.344Z,25.03
2018-02-17T09:35:54.756Z,28.75
2018-02-17T09:38:22.190Z,24.73
2018-02-17T09:40:49.587Z,26.60
2018-02-17T09:43:17.001Z,26.10
2018-02-17T09:45:44.413Z,26.63
2018-02-17T09:48:11.829Z,23.87
2018-02-17T09:50:39.238Z,28.93
2018-02-17T09:53:06.658Z,29.53
2018-02-17T09:55:34.061Z,25.97
2018-02-17T09:58:01.492Z,28.10
2018-02-17T10:00:28.905Z,28.80
2018-02-17T10:02:56.317Z,26.00
2018-02-17T10:05:23.729Z,26.47
2018-02-17T10:07:51.141Z,28.48
2018-02-17T10:10:18.541Z,26.37
2018-02-17T10:12:45.957Z,29.50
2018-02-17T10:15:13.362Z,25.70
2018-02-17T10:17:40.779Z,27.17
2018-02-17T10:20:08.190Z,26.20
2018-02-17T10:22:35.593Z,28.33
2018-02-17T10:25:03.009Z,28.80
2018-02-17T10:27:30.425Z,25.07
2018-02-17T10:29:57.902Z,24.70
2018-02-17T10:32:25.255Z,24.45
2018-02-17T10:34:52.673Z,23.07
2018-02-17T10:37:20.077Z,22.90
2018-02-17T10:39:47.499Z,21.40
2018-02-17T10:42:14.909Z,19.40
2018-02-17T10:44:42.334Z,19.90
2018-02-17T10:47:09.737Z,18.63
2018-02-17T10:49:37.157Z,17.10
2018-02-17T10:52:04.561Z,18.87
2018-02-17T10:54:31.979Z,19.50
2018-02-17T10:56:59.396Z,20.30
2018-02-17T10:59:26.805Z,22.53
2018-02-17T11:01:54.218Z,19.83
2018-02-17T11:04:21.634Z,17.10
2018-02-17T11:06:49.041Z,18.23
2018-02-17T11:09:16.462Z,21.33
2018-02-17T11:11:43.866Z,15.83
2018-02-17T11:14:11.291Z,23.20
2018-02-17T11:16:38.698Z,26.07
2018-02-17T11:19:06.105Z,29.80
2018-02-17T11:21:33.519Z,30.63
2018-02-17T11:24:00.936Z,29.67
2018-02-17T11:26:28.341Z,23.37
2018-02-17T11:28:55.759Z,24.08
2018-02-17T11:31:23.156Z,31.27
2018-02-17T11:33:50.610Z,33.00
2018-02-17T11:36:18.021Z,28.67
2018-02-17T11:38:46.253Z,34.10
2018-02-17T11:41:13.669Z,31.20
2018-02-17T11:43:41.077Z,29.53
2018-02-17T11:46:08.551Z,26.60
2018-02-17T11:48:35.909Z,24.00
2018-02-17T11:51:03.321Z,25.73
2018-02-17T11:53:30.729Z,26.48
2018-02-17T11:55:58.142Z,23.80
2018-02-17T11:58:25.549Z,18.37
2018-02-17T12:00:52.975Z,22.70
2018-02-17T12:03:20.376Z,22.10
2018-02-17T12:05:47.789Z,16.27
2018-02-17T12:08:15.201Z,23.17
2018-02-17T12:10:42.615Z,15.37
2018-02-17T12:13:10.026Z,18.80
2018-02-17T12:15:37.445Z,19.30
2018-02-17T12:18:04.863Z,22.55
2018-02-17T12:20:32.295Z,23.83
2018-02-17T12:22:59.673Z,26.50
2018-02-17T12:25:27.089Z,23.92
2018-02-17T12:27:54.502Z,22.70
2018-02-17T12:30:21.917Z,23.00
2018-02-17T12:32:49.321Z,24.60
2018-02-17T12:35:16.745Z,16.27
2018-02-17T12:37:44.169Z,26.83
2018-02-17T12:40:11.573Z,25.07
2018-02-17T12:42:38.985Z,23.73
2018-02-17T12:45:06.442Z,26.07
2018-02-17T12:47:33.813Z,26.67
2018-02-17T12:50:01.221Z,24.70
2018-02-17T12:52:28.642Z,23.67
2018-02-17T12:54:56.043Z,23.97
2018-02-17T12:57:23.452Z,23.00
2018-02-17T12:59:50.865Z,21.37
2018-02-17T13:02:18.277Z,23.80
2018-02-17T13:04:46.335Z,23.20
2018-02-17T13:07:13.753Z,20.50
2018-02-17T13:09:41.168Z,23.63
2018-02-17T13:12:08.584Z,20.90
2018-02-17T13:14:36.617Z,18.20
2018-02-17T13:17:04.034Z,16.83
2018-02-17T13:19:31.455Z,15.87
2018-02-17T13:21:58.880Z,15.70
2018-02-17T13:24:26.334Z,16.73
2018-02-17T13:26:53.747Z,16.80
2018-02-17T13:29:21.377Z,12.65
2018-02-17T13:31:48.794Z,15.20
2018-02-17T13:34:16.208Z,14.30
2018-02-17T13:36:43.858Z,11.65
2018-02-17T13:39:11.265Z,12.70
2018-02-17T13:41:38.680Z,13.53
2018-02-17T13:44:06.085Z,13.70
2018-02-17T13:46:33.504Z,12.27
2018-02-17T13:49:00.908Z,12.40
2018-02-17T13:51:28.339Z,11.02
2018-02-17T13:53:55.737Z,10.33
2018-02-17T13:56:23.153Z,10.10
2018-02-17T13:58:50.580Z,11.77
2018-02-17T14:01:17.972Z,7.00
2018-02-17T14:03:45.387Z,9.20
2018-02-17T14:06:12.798Z,10.13
2018-02-17T14:08:40.197Z,9.53
2018-02-17T14:11:07.617Z,10.40
2018-02-17T14:13:35.028Z,10.30
2018-02-17T14:16:02.433Z,10.10
2018-02-17T14:18:29.854Z,11.80
2018-02-17T14:20:57.277Z,12.07
2018-02-17T14:23:24.698Z,13.67
2018-02-17T14:25:52.105Z,14.35
2018-02-17T14:28:19.526Z,13.70
2018-02-17T14:30:46.933Z,12.87
2018-02-17T14:33:14.353Z,15.82
2018-02-17T14:35:41.761Z,15.50
2018-02-17T14:38:09.183Z,15.07
2018-02-17T14:40:36.587Z,17.52
2018-02-17T14:43:04.011Z,16.03
2018-02-17T14:45:31.420Z,15.63
2018-02-17T14:47:58.840Z,13.87
2018-02-17T14:50:26.249Z,15.17
2018-02-17T14:52:54.004Z,14.50
2018-02-17T14:55:21.415Z,15.37
2018-02-17T14:57:48.821Z,16.00
2018-02-17T15:00:16.242Z,15.60
2018-02-17T15:02:43.658Z,14.37
2018-02-17T15:05:11.074Z,14.27
2018-02-17T15:07:38.484Z,16.50
2018-02-17T15:10:05.902Z,15.20
2018-02-17T15:12:33.311Z,15.00
2018-02-17T15:15:00.728Z,18.20
2018-02-17T15:17:28.129Z,17.67
2018-02-17T15:19:55.550Z,15.13
2018-02-17T15:22:22.960Z,20.40
2018-02-17T15:24:50.370Z,16.90
2018-02-17T15:27:17.773Z,21.70
2018-02-17T15:29:45.196Z,19.47
2018-02-17T15:32:12.592Z,24.00
2018-02-17T15:34:40.026Z,17.00
2018-02-17T15:37:07.439Z,24.67
2018-02-17T15:39:34.850Z,23.07
2018-02-17T15:42:02.257Z,23.80
2018-02-17T15:44:29.681Z,22.87
2018-02-17T15:46:57.086Z,24.43
2018-02-17T15:49:24.498Z,24.00
2018-02-17T15:51:51.913Z,22.00
2018-02-17T15:54:19.339Z,22.50
2018-02-17T15:56:46.745Z,24.03
2018-02-17T15:59:14.162Z,25.37
2018-02-17T16:01:41.560Z,28.80
2018-02-17T16:04:08.969Z,25.20
2018-02-17T16:06:36.385Z,27.77
2018-02-17T16:09:03.797Z,27.53
2018-02-17T16:11:31.247Z,23.43
2018-02-17T16:13:58.626Z,25.53
2018-02-17T16:16:26.441Z,27.58
2018-02-17T16:18:53.851Z,28.70
2018-02-17T16:21:21.268Z,27.53
2018-02-17T16:23:48.674Z,28.93
2018-02-17T16:26:16.095Z,26.50
2018-02-17T16:28:43.493Z,28.02
2018-02-17T16:31:10.918Z,32.23
2018-02-17T16:33:38.598Z,28.67
2018-02-17T16:36:06.005Z,28.50
2018-02-17T16:38:33.412Z,25.17
2018-02-17T16:41:00.837Z,30.00
2018-02-17T16:43:28.246Z,26.07
2018-02-17T16:45:55.661Z,26.93
2018-02-17T16:48:23.065Z,24.97
2018-02-17T16:50:50.576Z,26.67
2018-02-17T16:53:17.985Z,24.10
2018-02-17T16:55:45.403Z,21.10
2018-02-17T16:58:12.809Z,25.07
2018-02-17T17:00:40.221Z,24.80
2018-02-17T17:03:07.630Z,28.80
2018-02-17T17:05:35.046Z,27.63
2018-02-17T17:08:02.449Z,25.30
2018-02-17T17:10:29.872Z,23.38
2018-02-17T17:12:58.057Z,27.05
2018-02-17T17:15:25.469Z,25.10
2018-02-17T17:17:52.874Z,28.87
2018-02-17T17:20:20.313Z,27.97
2018-02-17T17:22:47.721Z,26.30
2018-02-17T17:25:15.129Z,26.47
2018-02-17T17:27:42.545Z,29.27
2018-02-17T17:30:09.977Z,28.23
2018-02-17T17:32:37.378Z,26.93
2018-02-17T17:35:04.906Z,28.77
2018-02-17T17:37:32.311Z,29.60
2018-02-17T17:39:59.722Z,29.55
2018-02-17T17:42:27.140Z,31.43
2018-02-17T17:44:54.549Z,29.47
2018-02-17T17:47:21.961Z,37.33
2018-02-17T17:49:49.362Z,36.33
2018-02-17T17:52:16.769Z,34.07
2018-02-17T17:54:44.189Z,36.50
2018-02-17T17:57:11.605Z,37.20
2018-02-17T17:59:39.014Z,34.03
2018-02-17T18:02:06.436Z,37.33
2018-02-17T18:04:33.839Z,34.72
2018-02-17T18:07:01.258Z,34.90
2018-02-17T18:09:28.662Z,35.15
2018-02-17T18:11:56.086Z,38.80
2018-02-17T18:14:23.494Z,37.77
2018-02-17T18:16:50.958Z,39.90
2018-02-17T18:19:18.366Z,37.67
2018-02-17T18:21:45.774Z,38.73
2018-02-17T18:24:13.182Z,32.23
2018-02-17T18:26:40.596Z,38.30
2018-02-17T18:29:08.013Z,37.33
2018-02-17T18:31:36.434Z,38.92
2018-02-17T18:34:03.840Z,38.60
2018-02-17T18:36:31.249Z,36.53
2018-02-17T18:38:58.674Z,35.70
2018-02-17T18:41:26.077Z,35.67
2018-02-17T18:43:53.490Z,35.97
2018-02-17T18:46:20.887Z,37.00
2018-02-17T18:48:48.304Z,39.60
2018-02-17T18:51:15.719Z,37.97
2018-02-17T18:53:43.172Z,37.63
2018-02-17T18:56:10.537Z,40.27
2018-02-17T18:58:37.955Z,39.80
2018-02-17T19:01:05.362Z,38.53
2018-02-17T19:03:32.786Z,40.40
2018-02-17T19:06:00.974Z,38.50
2018-02-17T19:08:29.060Z,36.03
2018-02-17T19:10:56.473Z,39.07
2018-02-17T19:13:23.897Z,38.28
2018-02-17T19:15:51.315Z,43.17
2018-02-17T19:18:18.725Z,47.93
2018-02-17T19:20:46.136Z,43.40
2018-02-17T19:23:13.561Z,35.70
2018-02-17T19:25:40.964Z,40.70
2018-02-17T19:28:08.797Z,37.80
2018-02-17T19:30:36.193Z,39.07
2018-02-17T19:33:03.630Z,34.57
2018-02-17T19:35:31.038Z,34.60
2018-02-17T19:37:58.455Z,36.50
2018-02-17T19:40:25.864Z,33.25
2018-02-17T19:42:53.275Z,36.40
2018-02-17T19:45:20.691Z,35.27
2018-02-17T19:47:48.104Z,35.67
2018-02-17T19:50:15.508Z,40.03
2018-02-17T19:52:42.914Z,41.90
2018-02-17T19:55:10.335Z,37.43
2018-02-17T19:57:37.748Z,39.27
2018-02-17T20:00:05.156Z,37.53
2018-02-17T20:02:32.561Z,41.60
2018-02-17T20:04:59.981Z,36.60
2018-02-17T20:07:27.396Z,36.73
2018-02-17T20:09:54.813Z,37.93
2018-02-17T20:12:22.213Z,37.57
2018-02-17T20:14:49.630Z,36.03
2018-02-17T20:17:17.040Z,35.97
2018-02-17T20:19:44.452Z,36.77
2018-02-17T20:22:11.858Z,34.90
2018-02-17T20:24:39.269Z,37.30
2018-02-17T20:27:06.677Z,32.40
2018-02-17T20:29:34.890Z,36.10
2018-02-17T20:32:02.298Z,32.33
2018-02-17T20:34:29.701Z,34.30
2018-02-17T20:36:57.111Z,35.67
2018-02-17T20:39:24.588Z,32.30
2018-02-17T20:41:52.001Z,29.47
2018-02-17T20:44:19.407Z,33.60
2018-02-17T20:46:46.808Z,33.60
2018-02-17T20:49:14.222Z,31.97
2018-02-17T20:51:41.629Z,33.80
2018-02-17T20:54:09.051Z,33.70
2018-02-17T20:56:36.673Z,33.53
2018-02-17T20:59:04.074Z,35.97
2018-02-17T21:01:31.486Z,35.50
2018-02-17T21:03:58.886Z,34.60
2018-02-17T21:06:26.298Z,41.00
2018-02-17T21:08:53.693Z,37.20
2018-02-17T21:11:21.220Z,34.07
2018-02-17T21:13:48.625Z,40.80
2018-02-17T21:16:16.038Z,37.13
2018-02-17T21:18:43.444Z,37.27
2018-02-17T21:21:10.854Z,40.12
2018-02-17T21:23:38.257Z,39.30
2018-02-17T21:26:05.672Z,41.10
2018-02-17T21:28:33.077Z,43.63
2018-02-17T21:31:00.488Z,44.30
2018-02-17T21:33:27.897Z,41.57
2018-02-17T21:35:55.310Z,42.22
2018-02-17T21:38:23.436Z,41.00
2018-02-17T21:40:50.845Z,35.97
2018-02-17T21:43:18.272Z,43.40
2018-02-17T21:45:45.684Z,35.75
2018-02-17T21:48:13.099Z,41.03
2018-02-17T21:50:40.937Z,42.27
2018-02-17T21:53:08.337Z,44.27
2018-02-17T21:55:35.752Z,45.83
2018-02-17T21:58:03.154Z,41.37
2018-02-17T22:02:40.036Z,62.40
2018-02-17T22:05:07.445Z,62.83
2018-02-17T22:07:34.858Z,60.30
2018-02-17T22:10:02.285Z,45.80
2018-02-17T22:12:30.631Z,40.57
2018-02-17T22:14:58.002Z,40.17
2018-02-17T22:17:25.409Z,44.57
2018-02-17T22:19:52.830Z,43.63
2018-02-17T22:22:20.246Z,41.05
2018-02-17T22:24:47.651Z,42.17
2018-02-17T22:27:15.074Z,39.67
2018-02-17T22:29:42.486Z,40.40
2018-02-17T22:32:09.897Z,38.27
2018-02-17T22:34:37.309Z,32.40
2018-02-17T22:37:04.726Z,38.07
2018-02-17T22:39:32.140Z,35.90
2018-02-17T22:42:00.178Z,38.70
2018-02-17T22:44:27.778Z,39.63
2018-02-17T22:46:55.189Z,30.73
2018-02-17T22:49:22.597Z,38.70
2018-02-17T22:51:50.009Z,41.07
2018-02-17T22:54:17.417Z,38.03
2018-02-17T22:56:44.830Z,39.00
2018-02-17T22:59:12.250Z,36.00
2018-02-17T23:01:39.662Z,36.40
2018-02-17T23:04:07.069Z,35.63
2018-02-17T23:06:34.540Z,35.80
2018-02-17T23:09:01.954Z,37.63
2018-02-17T23:11:29.371Z,37.45
2018-02-17T23:13:56.786Z,36.53
2018-02-17T23:16:24.208Z,34.67
2018-02-17T23:18:51.616Z,38.45
2018-02-17T23:21:19.019Z,36.67
2018-02-17T23:23:46.425Z,36.43
2018-02-17T23:26:13.829Z,39.07
2018-02-17T23:28:42.305Z,38.63
2018-02-17T23:31:09.714Z,39.47
2018-02-17T23:33:37.134Z,35.67
2018-02-17T23:36:04.533Z,39.30
2018-02-17T23:38:32.927Z,39.20
2018-02-17T23:41:00.333Z,37.47
2018-02-17T23:43:27.757Z,42.70
2018-02-17T23:45:55.157Z,40.10
2018-02-17T23:48:22.560Z,36.10
2018-02-17T23:50:49.976Z,41.27
2018-02-17T23:53:17.381Z,40.30
2018-02-17T23:55:44.793Z,38.73
2018-02-17T23:58:12.206Z,38.87
